createdAt,value
2022-12-10T00:01:31.317Z,39.55
2022-12-10T00:03:58.555Z,39.08
2022-12-10T00:06:31.098Z,40.10
2022-12-10T00:08:58.002Z,40.38
2022-12-10T00:11:25.172Z,38.72
2022-12-10T00:13:52.944Z,37.70
2022-12-10T00:16:22.159Z,38.50
2022-12-10T00:18:49.792Z,39.35
2022-12-10T00:21:19.102Z,39.17
2022-12-10T00:23:46.810Z,40.80
2022-12-10T00:26:19.422Z,39.78
2022-12-10T00:28:47.387Z,40.13
2022-12-10T00:31:20.251Z,39.83
2022-12-10T00:33:47.513Z,38.97
2022-12-10T00:36:20.979Z,39.15
2022-12-10T00:38:50.413Z,40.00
2022-12-10T00:41:17.859Z,39.28
2022-12-10T00:43:45.148Z,37.50
2022-12-10T00:46:13.840Z,39.15
2022-12-10T00:48:41.050Z,37.30
2022-12-10T00:51:13.953Z,39.50
2022-12-10T00:53:43.869Z,38.40
2022-12-10T00:56:12.660Z,37.85
2022-12-10T00:58:39.954Z,37.05
2022-12-10T01:01:37.523Z,39.20
2022-12-10T01:04:13.045Z,40.03
2022-12-10T01:06:52.046Z,40.17
2022-12-10T01:09:22.145Z,38.97
2022-12-10T01:11:52.442Z,40.08
2022-12-10T01:14:22.569Z,40.45
2022-12-10T01:16:55.256Z,43.10
2022-12-10T01:19:22.024Z,43.22
2022-12-10T01:21:55.667Z,42.35
2022-12-10T01:24:23.886Z,42.08
2022-12-10T01:26:55.782Z,44.00
2022-12-10T01:29:23.429Z,44.75
2022-12-10T01:31:54.343Z,43.60
2022-12-10T01:34:24.267Z,44.70
2022-12-10T01:36:53.771Z,45.33
2022-12-10T01:39:22.312Z,45.63
2022-12-10T01:42:00.126Z,45.55
2022-12-10T01:44:26.765Z,49.75
2022-12-10T01:47:01.549Z,48.53
2022-12-10T01:49:37.757Z,47.88
2022-12-10T01:52:06.498Z,49.22
2022-12-10T01:54:37.464Z,49.17
2022-12-10T01:57:12.362Z,47.90
2022-12-10T01:59:40.460Z,48.90
2022-12-10T02:02:32.005Z,46.78
2022-12-10T02:05:33.821Z,48.75
2022-12-10T02:08:11.819Z,48.90
2022-12-10T02:11:00.783Z,49.58
2022-12-10T02:13:38.017Z,49.47
2022-12-10T02:16:16.070Z,48.42
2022-12-10T02:19:20.431Z,48.75
2022-12-10T02:21:50.103Z,49.70
2022-12-10T02:24:23.185Z,46.70
2022-12-10T02:27:22.550Z,45.97
2022-12-10T02:29:50.760Z,45.28
2022-12-10T02:32:27.632Z,46.50
2022-12-10T02:34:58.615Z,50.20
2022-12-10T02:37:31.102Z,46.00
2022-12-10T02:40:02.617Z,48.35
2022-12-10T02:42:31.745Z,45.45
2022-12-10T02:44:58.856Z,49.72
2022-12-10T02:47:29.022Z,49.10
2022-12-10T02:49:58.933Z,49.97
2022-12-10T02:52:26.369Z,47.20
2022-12-10T02:54:53.442Z,45.92
2022-12-10T02:57:26.385Z,48.00
2022-12-10T03:00:17.077Z,49.50
2022-12-10T03:03:05.395Z,47.50
2022-12-10T03:05:41.116Z,47.55
2022-12-10T03:08:21.283Z,48.42
2022-12-10T03:11:00.528Z,47.13
2022-12-10T03:13:33.730Z,44.75
2022-12-10T03:16:04.591Z,46.80
2022-12-10T03:18:38.375Z,46.63
2022-12-10T03:21:10.777Z,51.90
2022-12-10T03:23:43.946Z,47.25
2022-12-10T03:26:11.703Z,47.33
2022-12-10T03:28:46.093Z,45.75
2022-12-10T03:31:15.222Z,46.17
2022-12-10T03:33:44.830Z,46.53
2022-12-10T03:36:13.045Z,44.67
2022-12-10T03:38:40.369Z,46.25
2022-12-10T03:41:07.522Z,48.92
2022-12-10T03:43:36.543Z,51.78
2022-12-10T03:46:05.853Z,47.17
2022-12-10T03:48:37.268Z,47.90
2022-12-10T03:51:04.419Z,50.58
2022-12-10T03:53:31.102Z,44.75
2022-12-10T03:55:57.892Z,45.95
2022-12-10T03:58:24.604Z,46.35
2022-12-10T04:00:54.137Z,47.15
2022-12-10T04:03:20.776Z,46.03
2022-12-10T04:05:47.498Z,44.55
2022-12-10T04:08:16.409Z,45.17
2022-12-10T04:10:43.352Z,43.30
2022-12-10T04:13:28.778Z,44.78
2022-12-10T04:16:16.266Z,44.22
2022-12-10T04:18:42.939Z,44.10
2022-12-10T04:21:28.249Z,42.60
2022-12-10T04:24:13.677Z,42.88
2022-12-10T04:26:56.162Z,44.88
2022-12-10T04:29:30.731Z,45.13
2022-12-10T04:31:58.290Z,46.08
2022-12-10T04:34:26.051Z,43.22
2022-12-10T04:36:53.078Z,40.83
2022-12-10T04:39:20.099Z,40.83
2022-12-10T04:41:50.150Z,41.30
2022-12-10T04:44:17.778Z,40.67
2022-12-10T04:46:44.990Z,43.72
2022-12-10T04:49:14.432Z,40.75
2022-12-10T04:51:41.940Z,40.70
2022-12-10T04:54:09.099Z,39.67
2022-12-10T04:56:38.551Z,38.67
2022-12-10T04:59:06.303Z,38.72
2022-12-10T05:01:38.702Z,40.80
2022-12-10T05:04:10.165Z,40.13
2022-12-10T05:06:39.573Z,39.83
2022-12-10T05:09:06.936Z,41.20
2022-12-10T05:11:34.825Z,42.92
2022-12-10T05:14:01.826Z,42.08
2022-12-10T05:16:31.792Z,38.55
2022-12-10T05:18:59.585Z,39.30
2022-12-10T05:21:50.943Z,42.38
2022-12-10T05:24:18.785Z,38.45
2022-12-10T05:26:46.357Z,38.10
2022-12-10T05:29:14.010Z,35.97
2022-12-10T05:31:40.759Z,39.33
2022-12-10T05:34:09.152Z,36.80
2022-12-10T05:36:36.142Z,35.95
2022-12-10T05:39:03.933Z,40.03
2022-12-10T05:41:34.980Z,36.78
2022-12-10T05:44:02.031Z,36.65
2022-12-10T05:46:31.374Z,39.60
2022-12-10T05:48:59.921Z,38.38
2022-12-10T05:51:29.826Z,36.65
2022-12-10T05:53:58.730Z,36.83
2022-12-10T05:56:26.952Z,35.83
2022-12-10T05:58:58.772Z,36.40
2022-12-10T06:03:53.696Z,37.75
2022-12-10T06:06:27.880Z,36.35
2022-12-10T06:08:55.552Z,36.88
2022-12-10T06:11:22.761Z,34.45
2022-12-10T06:13:56.178Z,33.40
2022-12-10T06:16:25.385Z,32.88
2022-12-10T06:18:55.121Z,33.92
2022-12-10T06:21:22.408Z,34.30
2022-12-10T06:23:52.128Z,30.15
2022-12-10T06:26:24.925Z,32.33
2022-12-10T06:28:55.409Z,32.10
2022-12-10T06:31:23.028Z,35.60
2022-12-10T06:33:50.170Z,33.38
2022-12-10T06:36:21.805Z,33.30
2022-12-10T06:38:51.377Z,33.15
2022-12-10T06:41:21.378Z,33.50
2022-12-10T06:43:49.055Z,35.72
2022-12-10T06:46:19.369Z,35.13
2022-12-10T06:48:46.780Z,36.28
2022-12-10T06:51:18.272Z,36.55
2022-12-10T06:53:48.780Z,36.15
2022-12-10T06:56:18.804Z,38.72
2022-12-10T06:58:46.824Z,36.00
2022-12-10T07:01:17.598Z,36.05
2022-12-10T07:03:44.451Z,35.40
2022-12-10T07:06:12.148Z,36.63
2022-12-10T07:08:41.221Z,36.22
2022-12-10T07:11:10.085Z,35.65
2022-12-10T07:13:37.253Z,34.50
2022-12-10T07:16:12.307Z,32.25
2022-12-10T07:18:39.025Z,32.80
2022-12-10T07:21:17.880Z,34.53
2022-12-10T07:23:44.731Z,33.03
2022-12-10T07:26:12.029Z,36.25
2022-12-10T07:28:50.924Z,34.17
2022-12-10T07:31:21.697Z,34.97
2022-12-10T07:33:53.638Z,34.67
2022-12-10T07:36:23.585Z,34.55
2022-12-10T07:38:54.982Z,34.80
2022-12-10T07:41:24.137Z,38.15
2022-12-10T07:43:51.160Z,40.85
2022-12-10T07:46:27.655Z,40.40
2022-12-10T07:48:54.894Z,38.92
2022-12-10T07:51:23.644Z,38.20
2022-12-10T07:53:54.033Z,38.03
2022-12-10T07:56:22.488Z,39.25
2022-12-10T07:58:51.889Z,38.65
2022-12-10T08:01:23.317Z,37.95
2022-12-10T08:03:51.087Z,38.25
2022-12-10T08:06:20.469Z,37.90
2022-12-10T08:08:47.836Z,38.70
2022-12-10T08:11:16.537Z,38.55
2022-12-10T08:13:50.592Z,37.95
2022-12-10T08:16:26.300Z,35.40
2022-12-10T08:18:54.338Z,34.85
2022-12-10T08:21:23.455Z,34.72
2022-12-10T08:23:50.616Z,34.88
2022-12-10T08:26:20.876Z,34.58
2022-12-10T08:28:49.316Z,35.20
2022-12-10T08:31:18.116Z,36.72
2022-12-10T08:33:44.897Z,35.22
2022-12-10T08:36:17.112Z,36.40
2022-12-10T08:38:44.509Z,36.47
2022-12-10T08:41:19.741Z,37.55
2022-12-10T08:43:47.318Z,37.22
2022-12-10T08:46:19.099Z,38.13
2022-12-10T08:51:16.258Z,35.95
2022-12-10T08:53:45.948Z,38.92
2022-12-10T08:56:17.126Z,36.58
2022-12-10T08:58:43.995Z,36.42
2022-12-10T09:01:16.386Z,36.85
2022-12-10T09:03:43.393Z,36.22
2022-12-10T09:06:16.200Z,37.13
2022-12-10T09:08:45.231Z,36.70
2022-12-10T09:11:16.252Z,36.70
2022-12-10T09:13:45.435Z,38.63
2022-12-10T09:16:14.829Z,37.03
2022-12-10T09:18:44.325Z,37.22
2022-12-10T09:21:15.800Z,38.10
2022-12-10T09:23:45.760Z,38.03
2022-12-10T09:26:16.466Z,36.67
2022-12-10T09:28:44.223Z,36.65
2022-12-10T09:31:15.637Z,37.15
2022-12-10T09:33:47.214Z,39.60
2022-12-10T09:36:16.951Z,37.15
2022-12-10T09:38:45.293Z,37.58
2022-12-10T09:41:14.914Z,36.28
2022-12-10T09:44:00.446Z,38.40
2022-12-10T09:46:43.157Z,36.85
2022-12-10T09:49:17.666Z,38.17
2022-12-10T09:51:46.589Z,37.65
2022-12-10T09:54:23.956Z,37.55
2022-12-10T09:56:53.155Z,38.53
2022-12-10T09:59:25.181Z,36.40
2022-12-10T10:02:11.618Z,37.67
2022-12-10T10:04:41.377Z,37.95
2022-12-10T10:07:17.903Z,38.35
2022-12-10T10:09:46.004Z,37.22
2022-12-10T10:12:18.367Z,38.60
2022-12-10T10:14:45.596Z,37.28
2022-12-10T10:17:21.318Z,37.58
2022-12-10T10:19:50.340Z,38.80
2022-12-10T10:22:17.368Z,38.78
2022-12-10T10:24:46.631Z,36.60
2022-12-10T10:27:21.359Z,34.45
2022-12-10T10:29:57.934Z,36.38
2022-12-10T10:32:52.592Z,35.97
2022-12-10T10:35:34.308Z,36.03
2022-12-10T10:38:21.484Z,36.67
2022-12-10T10:40:56.071Z,35.58
2022-12-10T10:43:46.739Z,35.08
2022-12-10T10:46:16.640Z,34.78
2022-12-10T10:48:46.254Z,35.00
2022-12-10T10:51:21.152Z,33.90
2022-12-10T10:53:53.274Z,34.42
2022-12-10T10:56:39.265Z,32.80
2022-12-10T10:59:07.272Z,34.60
2022-12-10T11:01:55.063Z,33.42
2022-12-10T11:04:51.869Z,35.17
2022-12-10T11:07:34.307Z,35.20
2022-12-10T11:10:01.622Z,37.63
2022-12-10T11:12:41.579Z,36.30
2022-12-10T11:15:33.917Z,35.92
2022-12-10T11:18:23.174Z,37.40
2022-12-10T11:21:22.647Z,38.85
2022-12-10T11:23:57.348Z,36.78
2022-12-10T11:26:31.050Z,39.40
2022-12-10T11:29:15.693Z,37.20
2022-12-10T11:31:58.154Z,36.67
2022-12-10T11:34:51.090Z,37.55
2022-12-10T11:37:23.189Z,38.38
2022-12-10T11:40:15.369Z,34.85
2022-12-10T11:43:03.755Z,37.92
2022-12-10T11:46:16.003Z,37.28
2022-12-10T11:51:53.486Z,34.05
2022-12-10T11:54:58.568Z,36.30
2022-12-10T11:57:49.982Z,36.35
2022-12-10T12:00:28.740Z,37.85
2022-12-10T12:06:23.301Z,35.70
2022-12-10T12:09:04.344Z,34.85
2022-12-10T12:11:49.318Z,34.93
2022-12-10T12:14:30.147Z,34.60
2022-12-10T12:17:33.931Z,35.08
2022-12-10T12:20:15.280Z,35.83
2022-12-10T12:22:48.007Z,36.20
2022-12-10T12:25:30.858Z,34.05
2022-12-10T12:28:22.755Z,36.50
2022-12-10T12:30:57.796Z,35.35
2022-12-10T12:34:06.033Z,33.95
2022-12-10T12:36:35.799Z,35.63
2022-12-10T12:39:17.551Z,35.85
2022-12-10T12:41:52.769Z,33.85
2022-12-10T12:44:33.066Z,35.95
2022-12-10T12:47:11.986Z,35.15
2022-12-10T12:49:44.090Z,37.65
2022-12-10T12:52:37.972Z,35.47
2022-12-10T12:55:19.968Z,35.78
2022-12-10T12:57:54.857Z,102.63
2022-12-10T13:00:24.398Z,51.75
2022-12-10T13:03:24.851Z,78.20
2022-12-10T13:05:52.077Z,86.35
2022-12-10T13:08:25.992Z,62.33
2022-12-10T13:10:58.760Z,52.97
2022-12-10T13:13:39.320Z,59.63
2022-12-10T13:16:49.301Z,58.20
2022-12-10T13:19:24.751Z,58.35
2022-12-10T13:22:14.166Z,45.42
2022-12-10T13:24:46.708Z,39.08
2022-12-10T13:27:20.301Z,39.10
2022-12-10T13:29:52.227Z,38.60
2022-12-10T13:32:24.647Z,77.38
2022-12-10T13:35:09.937Z,43.47
2022-12-10T13:37:53.896Z,36.40
2022-12-10T13:40:52.841Z,37.97
2022-12-10T13:43:56.218Z,36.13
2022-12-10T13:46:34.286Z,37.45
2022-12-10T13:49:17.598Z,39.42
2022-12-10T13:52:04.906Z,42.20
2022-12-10T13:55:20.720Z,40.42
2022-12-10T13:58:42.797Z,38.03
2022-12-10T14:01:57.895Z,39.75
2022-12-10T14:04:36.523Z,37.60
2022-12-10T14:07:04.055Z,39.13
2022-12-10T14:09:35.906Z,38.17
2022-12-10T14:12:09.584Z,38.65
2022-12-10T14:14:51.371Z,41.65
2022-12-10T14:17:24.766Z,40.72
2022-12-10T14:19:55.659Z,44.20
2022-12-10T14:22:50.688Z,42.10
2022-12-10T14:25:23.178Z,47.30
2022-12-10T14:27:52.201Z,45.10
2022-12-10T14:30:28.837Z,47.65
2022-12-10T14:32:59.490Z,48.92
2022-12-10T14:35:28.938Z,44.15
2022-12-10T14:37:58.453Z,48.20
2022-12-10T14:40:33.666Z,44.28
2022-12-10T14:43:41.558Z,42.85
2022-12-10T14:46:17.865Z,40.35
2022-12-10T14:48:47.046Z,41.05
2022-12-10T14:51:19.936Z,41.00
2022-12-10T14:53:53.673Z,42.78
2022-12-10T14:56:42.434Z,43.50
2022-12-10T14:59:23.571Z,47.08
2022-12-10T15:01:57.144Z,47.58
2022-12-10T15:04:27.099Z,47.95
2022-12-10T15:07:03.416Z,48.47
2022-12-10T15:09:32.609Z,45.40
2022-12-10T15:12:01.241Z,47.05
2022-12-10T15:14:30.822Z,46.28
2022-12-10T15:17:02.686Z,46.20
2022-12-10T15:19:33.985Z,45.08
2022-12-10T15:22:04.037Z,46.53
2022-12-10T15:24:41.395Z,44.75
2022-12-10T15:27:20.146Z,42.58
2022-12-10T15:29:47.019Z,46.25
2022-12-10T15:32:18.471Z,44.78
2022-12-10T15:35:07.867Z,45.50
2022-12-10T15:37:38.701Z,48.13
2022-12-10T15:40:30.164Z,45.60
2022-12-10T15:43:20.804Z,45.55
2022-12-10T15:45:53.015Z,47.42
2022-12-10T15:48:22.556Z,49.40
2022-12-10T15:50:52.822Z,46.42
2022-12-10T15:53:36.682Z,45.85
2022-12-10T15:56:06.599Z,44.70
2022-12-10T15:58:33.491Z,45.38
2022-12-10T16:01:01.880Z,45.03
2022-12-10T16:03:30.202Z,45.67
2022-12-10T16:05:59.234Z,45.95
2022-12-10T16:08:29.311Z,46.35
2022-12-10T16:11:02.617Z,46.35
2022-12-10T16:13:33.691Z,49.10
2022-12-10T16:16:13.691Z,48.17
2022-12-10T16:18:40.445Z,50.70
2022-12-10T16:21:10.427Z,48.58
2022-12-10T16:23:38.445Z,50.97
2022-12-10T16:26:23.065Z,50.75
2022-12-10T16:28:54.933Z,49.70
2022-12-10T16:31:22.808Z,48.97
2022-12-10T16:33:52.600Z,45.50
2022-12-10T16:36:21.965Z,46.10
2022-12-10T16:38:48.853Z,49.22
2022-12-10T16:41:34.142Z,44.45
2022-12-10T16:44:03.072Z,44.42
2022-12-10T16:46:29.892Z,52.42
2022-12-10T16:48:56.652Z,45.00
2022-12-10T16:51:30.556Z,41.97
2022-12-10T16:53:57.971Z,45.63
2022-12-10T16:56:25.012Z,44.60
2022-12-10T16:58:51.728Z,46.55
2022-12-10T17:01:34.223Z,47.03
2022-12-10T17:04:01.004Z,48.83
2022-12-10T17:06:30.273Z,47.35
2022-12-10T17:08:59.554Z,46.22
2022-12-10T17:11:49.061Z,46.78
2022-12-10T17:14:30.760Z,46.72
2022-12-10T17:17:03.752Z,47.72
2022-12-10T17:19:33.978Z,45.75
2022-12-10T17:22:00.905Z,48.10
2022-12-10T17:24:27.632Z,49.28
2022-12-10T17:26:56.916Z,47.45
2022-12-10T17:29:25.349Z,44.30
2022-12-10T17:31:54.644Z,45.47
2022-12-10T17:34:24.319Z,46.72
2022-12-10T17:36:55.660Z,47.00
2022-12-10T17:39:25.840Z,46.70
2022-12-10T17:41:55.844Z,43.83
2022-12-10T17:44:23.071Z,43.55
2022-12-10T17:46:52.750Z,42.53
2022-12-10T17:49:24.190Z,41.35
2022-12-10T17:51:53.101Z,41.38
2022-12-10T17:54:19.810Z,39.75
2022-12-10T17:56:49.013Z,41.25
2022-12-10T17:59:15.781Z,40.78
2022-12-10T18:01:48.791Z,38.13
2022-12-10T18:04:16.187Z,35.80
2022-12-10T18:06:48.239Z,36.85
2022-12-10T18:09:20.227Z,34.90
2022-12-10T18:11:48.253Z,33.40
2022-12-10T18:14:15.498Z,33.00
2022-12-10T18:16:44.060Z,31.75
2022-12-10T18:19:15.305Z,28.42
2022-12-10T18:21:43.132Z,24.42
2022-12-10T18:24:15.585Z,20.52
2022-12-10T18:26:43.981Z,20.02
2022-12-10T18:29:15.026Z,18.55
2022-12-10T18:31:43.858Z,20.95
2022-12-10T18:34:12.957Z,22.33
2022-12-10T18:36:46.526Z,22.77
2022-12-10T18:39:23.433Z,25.65
2022-12-10T18:41:55.948Z,27.05
2022-12-10T18:44:26.159Z,27.30
2022-12-10T18:46:55.290Z,30.38
2022-12-10T18:49:23.278Z,31.52
2022-12-10T18:51:52.484Z,29.55
2022-12-10T18:54:21.795Z,31.45
2022-12-10T18:57:32.205Z,27.83
2022-12-10T18:59:35.444Z,25.00
2022-12-10T19:02:02.142Z,18.92
2022-12-10T19:04:33.333Z,20.73
2022-12-10T19:07:02.306Z,19.80
2022-12-10T19:09:32.477Z,19.90
2022-12-10T19:12:02.212Z,21.15
2022-12-10T19:14:31.916Z,20.60
2022-12-10T19:17:01.024Z,22.83
2022-12-10T19:19:30.082Z,23.90
2022-12-10T19:22:02.016Z,25.35
2022-12-10T19:24:28.729Z,26.58
2022-12-10T19:26:55.681Z,28.17
2022-12-10T19:29:23.189Z,28.73
2022-12-10T19:31:50.935Z,29.25
2022-12-10T19:34:19.780Z,30.65
2022-12-10T19:36:47.792Z,33.40
2022-12-10T19:39:23.229Z,32.38
2022-12-10T19:41:50.545Z,34.15
2022-12-10T19:44:17.243Z,33.13
2022-12-10T19:46:44.529Z,34.78
2022-12-10T19:49:16.430Z,35.83
2022-12-10T19:51:43.578Z,36.05
2022-12-10T19:54:11.071Z,36.38
2022-12-10T19:56:37.956Z,37.80
2022-12-10T19:59:14.868Z,40.45
2022-12-10T20:01:46.887Z,37.85
2022-12-10T20:04:15.551Z,37.85
2022-12-10T20:06:44.277Z,38.88
2022-12-10T20:09:18.721Z,38.15
2022-12-10T20:11:45.823Z,39.58
2022-12-10T20:14:12.544Z,39.63
2022-12-10T20:16:41.557Z,39.13
2022-12-10T20:19:11.407Z,37.65
2022-12-10T20:21:38.177Z,38.45
2022-12-10T20:24:05.315Z,39.95
2022-12-10T20:26:40.621Z,38.35
2022-12-10T20:29:18.231Z,37.05
2022-12-10T20:31:45.288Z,37.00
2022-12-10T20:34:12.164Z,38.65
2022-12-10T20:36:42.260Z,36.80
2022-12-10T20:39:20.058Z,36.42
2022-12-10T20:41:48.901Z,38.63
2022-12-10T20:44:15.803Z,39.05
2022-12-10T20:46:43.041Z,39.50
2022-12-10T20:49:12.161Z,37.55
2022-12-10T20:51:38.857Z,35.45
2022-12-10T20:54:08.114Z,39.50
2022-12-10T20:56:34.996Z,38.15
2022-12-10T20:59:02.327Z,37.08
2022-12-10T21:01:31.272Z,39.92
2022-12-10T21:04:01.554Z,38.38
2022-12-10T21:06:29.920Z,37.97
2022-12-10T21:08:56.653Z,39.85
2022-12-10T21:11:28.261Z,38.13
2022-12-10T21:13:55.186Z,38.95
2022-12-10T21:16:25.365Z,40.10
2022-12-10T21:18:54.051Z,39.30
2022-12-10T21:21:23.087Z,39.20
2022-12-10T21:23:50.195Z,38.13
2022-12-10T21:26:17.165Z,37.55
2022-12-10T21:28:44.924Z,38.67
2022-12-10T21:31:25.763Z,37.85
2022-12-10T21:33:52.939Z,37.65
2022-12-10T21:36:21.907Z,37.03
2022-12-10T21:38:49.251Z,39.63
2022-12-10T21:41:44.376Z,37.25
2022-12-10T21:44:14.389Z,36.00
2022-12-10T21:46:42.397Z,36.58
2022-12-10T21:49:11.628Z,35.80
2022-12-10T21:51:40.383Z,35.33
2022-12-10T21:54:08.062Z,35.63
2022-12-10T21:56:35.272Z,37.30
2022-12-10T21:59:04.834Z,36.78
2022-12-10T22:01:34.321Z,38.03
2022-12-10T22:04:03.411Z,37.53
2022-12-10T22:06:32.610Z,36.95
2022-12-10T22:09:04.223Z,36.95
2022-12-10T22:11:33.158Z,36.50
2022-12-10T22:13:59.866Z,36.42
2022-12-10T22:16:29.147Z,37.47
2022-12-10T22:18:55.954Z,38.30
2022-12-10T22:21:25.229Z,37.67
2022-12-10T22:23:55.522Z,37.63
2022-12-10T22:26:26.859Z,38.83
2022-12-10T22:28:56.464Z,39.05
2022-12-10T22:31:25.448Z,36.22
2022-12-10T22:33:54.929Z,36.75
2022-12-10T22:36:21.889Z,36.72
2022-12-10T22:38:50.793Z,37.40
2022-12-10T22:41:20.073Z,37.20
2022-12-10T22:43:51.461Z,35.13
2022-12-10T22:48:48.913Z,35.28
2022-12-10T22:51:15.975Z,34.72
2022-12-10T22:53:45.387Z,35.17
2022-12-10T22:56:15.492Z,34.92
2022-12-10T22:58:42.974Z,36.65
2022-12-10T23:01:20.137Z,34.97
2022-12-10T23:03:48.526Z,34.85
2022-12-10T23:06:20.324Z,34.05
2022-12-10T23:11:15.390Z,33.10
2022-12-10T23:13:46.966Z,33.10
2022-12-10T23:16:17.148Z,32.70
2022-12-10T23:18:50.613Z,33.10
2022-12-10T23:21:24.060Z,33.58
2022-12-10T23:23:54.584Z,33.42
2022-12-10T23:26:21.942Z,33.72
2022-12-10T23:28:49.479Z,33.28
2022-12-10T23:31:17.350Z,34.50
2022-12-10T23:33:46.848Z,34.65
2022-12-10T23:36:13.810Z,34.70
2022-12-10T23:38:42.680Z,33.90
2022-12-10T23:41:11.697Z,34.65
2022-12-10T23:43:38.934Z,34.10
2022-12-10T23:46:11.618Z,34.58
2022-12-10T23:48:41.385Z,34.47
2022-12-10T23:51:10.638Z,34.50
2022-12-10T23:53:41.976Z,34.40
2022-12-10T23:56:17.709Z,35.17
2022-12-10T23:58:48.245Z,33.20
